Terminal Aerodrome Forecast
Issued by NWS Tiyan, Guam

Home | Current Version | Previous Version | Text Only | Print | Product List | Glossary On
Versions: 1 2 3 4 5 6 7 8 9 10 11 12 13 14 15 16 17 18 19 20 21 22 23 24 25 26 27 28 29 30 31 32 33 34 35 36 37 38 39 40
000
FTPQ31 PGUM 140500
TAFPQ
TAF
PGUM 140521Z 1406/1512 12011KT P6SM VCSH SCT020 SCT030 SCT120
      TEMPO 1406/1410 5SM SHRA SCT018 OVC030
     FM141000 10007KT P6SM VCSH SCT018 SCT030 BKN120
     FM150100 09011KT P6SM VCSH SCT020 SCT050 SCT120=

USA.gov is the U.S. government's official web portal to all federal, state and local government web resources and services.